Flight Training


We provide structured training required to obtain a pilots certificate ranging from a Private Pilot up to ATP flying for the major airlines.

If your desire to fly is for personal pleasure the first step is to find a professional FAA licensed flight instructor to begin your journey.

The one-hour introductory flight with an instructor lasts one hour and features a log book and a six-month subscription to Flight Training magazine. After flying you to the training area, your instructor will let you test the controls. Call us now

 

Aviation Weather

Available data for KLDJ from the past 2 hours
LINDEN, NJ
Metar
KLDJ 041355Z AUTO 00000KT 10SM CLR A2988 RMK AO2

13:55 UTC

Wind: 0° 0kt

Visibility: 10 SM

Sky:

Temp: / 32 deg F

Dewpoint: / 32 deg F

Pressure: 29.88 inHg

Pireps (2)
12N UA /OV N43-N43045025 /TM 1314 /FL030 /TP J3 /WX FV10SM
TTN UA /OV ARD360007/TM 1232/FL081/TP C172/TB NEG/RM CALM DURC

Available data for KEWR from the past hour
NEWARK, NJ
TAF
KEWR 041121Z 0412/0518 VRB04KT P6SM BKN250 FM041300 29006KT P6SM BKN250 FM041700 24009KT P6SM BKN250 FM042100 17009KT P6SM SCT150 BKN250 FM050000 20005KT 6SM -SHRA BR SCT040 BKN060 FM050700 VRB05KT P6SM SCT050 BKN100 FM051300 22006KT P6SM FEW025 SCT050 BKN100

Our planes

Some of our students